Time;durP1;ratioP1;P1;durP2;ratioP2;P2;SDS_P1;SDS_P2;PMS_P1;PMS_P2;Temp;Humidity;BMP_temperature;BMP_pressure;BME280_temperature;BME280_humidity;BME280_pressure;Samples;Min_cycle;Max_cycle;Signal;HPM_P1;HPM_P2
2021/10/22 00:00:11;;;;;;;9.75;6.47;;;16.00;99.90;;;;;;5052837;28;20033;-59
2021/10/22 00:02:42;;;;;;;9.45;6.00;;;16.00;99.90;;;;;;5049422;28;20048;-58
2021/10/22 00:05:10;;;;;;;9.98;6.05;;;16.00;99.90;;;;;;5053627;28;20478;-59
2021/10/22 00:07:38;;;;;;;9.30;6.35;;;16.00;99.90;;;;;;5034012;28;20461;-59
2021/10/22 00:10:07;;;;;;;7.32;5.65;;;16.00;99.90;;;;;;5042200;28;20047;-58
2021/10/22 00:12:34;;;;;;;8.50;5.00;;;16.10;99.90;;;;;;5051280;28;20116;-60
2021/10/22 00:15:05;;;;;;;11.07;5.00;;;16.20;99.90;;;;;;5060655;28;20044;-59
2021/10/22 00:17:36;;;;;;;7.70;4.43;;;16.10;99.90;;;;;;5041833;28;20502;-59
2021/10/22 00:20:06;;;;;;;8.98;5.18;;;16.10;99.90;;;;;;5053385;28;20048;-59
2021/10/22 00:22:34;;;;;;;8.82;5.38;;;16.00;99.90;;;;;;5052802;28;20665;-59
2021/10/22 00:25:03;;;;;;;11.07;5.80;;;16.00;99.90;;;;;;5069935;28;20041;-59
2021/10/22 00:27:30;;;;;;;7.78;5.38;;;16.00;99.90;;;;;;5035893;28;20041;-59
2021/10/22 00:29:59;;;;;;;8.18;5.90;;;16.10;99.90;;;;;;5035479;28;20049;-59
2021/10/22 00:32:28;;;;;;;9.80;7.30;;;16.10;99.90;;;;;;5020883;28;20491;-58
2021/10/22 00:34:56;;;;;;;12.27;7.25;;;16.10;99.90;;;;;;5052916;28;20121;-58
2021/10/22 00:37:24;;;;;;;13.30;7.13;;;16.10;99.90;;;;;;5053320;28;20040;-59
2021/10/22 00:39:52;;;;;;;11.02;6.55;;;16.00;99.90;;;;;;5054192;28;20044;-58
2021/10/22 00:42:22;;;;;;;8.40;5.88;;;16.10;99.90;;;;;;5021154;28;20052;-58
2021/10/22 00:44:51;;;;;;;9.07;5.68;;;16.10;99.90;;;;;;5054346;28;20080;-58
2021/10/22 00:47:20;;;;;;;7.93;6.70;;;16.10;99.90;;;;;;5054007;28;20037;-58
2021/10/22 00:49:47;;;;;;;10.30;6.57;;;16.10;99.90;;;;;;5037696;28;20231;-58
2021/10/22 00:52:20;;;;;;;10.23;7.00;;;16.20;99.90;;;;;;5071719;28;20040;-58
2021/10/22 00:54:49;;;;;;;11.82;6.72;;;16.10;99.90;;;;;;5037607;28;20059;-58
2021/10/22 00:57:17;;;;;;;10.77;6.90;;;16.20;99.90;;;;;;5039068;28;20053;-58
2021/10/22 00:59:47;;;;;;;9.63;7.03;;;16.20;99.90;;;;;;5024682;28;20062;-59
2021/10/22 01:02:15;;;;;;;9.50;6.82;;;16.10;99.90;;;;;;5040834;28;20047;-58
2021/10/22 01:04:44;;;;;;;10.30;7.30;;;16.10;99.90;;;;;;5057263;28;20036;-58
2021/10/22 01:07:16;;;;;;;15.50;7.45;;;16.20;99.90;;;;;;5040478;28;20483;-59
2021/10/22 01:09:44;;;;;;;10.55;7.07;;;16.20;99.90;;;;;;5075248;28;20048;-58
2021/10/22 01:12:13;;;;;;;10.90;7.68;;;16.20;99.90;;;;;;5040574;28;20080;-58
2021/10/22 01:14:41;;;;;;;11.77;8.10;;;16.10;99.90;;;;;;5057086;28;20071;-58
2021/10/22 01:17:31;;;;;;;11.13;7.60;;;16.10;99.90;;;;;;5007906;28;1318317;-58
2021/10/22 01:19:59;;;;;;;11.65;7.70;;;16.20;99.90;;;;;;5022285;28;20140;-58
2021/10/22 01:22:27;;;;;;;11.40;7.53;;;16.40;99.90;;;;;;5055747;28;20037;-58
2021/10/22 01:24:54;;;;;;;12.23;8.07;;;16.40;99.90;;;;;;5038295;28;20041;-58
2021/10/22 01:27:22;;;;;;;12.00;8.20;;;16.40;99.90;;;;;;5038050;28;20076;-58
2021/10/22 01:29:50;;;;;;;14.15;8.52;;;16.50;99.90;;;;;;5021653;28;20057;-58
2021/10/22 01:32:18;;;;;;;12.73;9.05;;;16.50;99.90;;;;;;5021504;28;20041;-58
2021/10/22 01:34:46;;;;;;;15.35;8.98;;;16.50;99.90;;;;;;5021831;28;20115;-58
2021/10/22 01:37:14;;;;;;;16.42;9.35;;;16.50;99.90;;;;;;5037820;28;20053;-58
2021/10/22 01:39:41;;;;;;;22.88;8.77;;;16.60;99.90;;;;;;5037675;28;20450;-58
2021/10/22 01:42:09;;;;;;;14.48;9.82;;;16.60;99.90;;;;;;5037957;28;20036;-59
2021/10/22 01:44:37;;;;;;;13.65;9.30;;;16.50;99.90;;;;;;5055296;28;20049;-58
2021/10/22 01:47:05;;;;;;;12.57;7.90;;;16.50;99.90;;;;;;5037917;28;20451;-58
2021/10/22 01:49:32;;;;;;;13.18;9.25;;;16.50;99.90;;;;;;5037853;28;20051;-58
2021/10/22 01:52:00;;;;;;;14.07;9.15;;;16.50;99.90;;;;;;5037670;28;20227;-58
2021/10/22 01:54:28;;;;;;;14.57;8.77;;;16.40;99.90;;;;;;5020970;28;20053;-58
2021/10/22 01:56:57;;;;;;;18.17;9.00;;;16.40;99.90;;;;;;5021432;28;20492;-59
2021/10/22 01:59:25;;;;;;;12.30;8.30;;;16.40;99.90;;;;;;5037613;28;20110;-58
2021/10/22 02:01:53;;;;;;;16.20;8.77;;;16.40;99.90;;;;;;5055107;28;20037;-58
2021/10/22 02:04:20;;;;;;;13.07;9.52;;;16.30;99.90;;;;;;5037498;28;20050;-59
2021/10/22 02:06:49;;;;;;;14.38;9.07;;;16.40;99.90;;;;;;5037079;28;20549;-59
2021/10/22 02:09:18;;;;;;;12.80;8.88;;;16.40;99.90;;;;;;5020089;28;20399;-58
2021/10/22 02:11:46;;;;;;;15.93;9.38;;;16.40;99.90;;;;;;5055135;28;20124;-58
2021/10/22 02:14:17;;;;;;;15.98;11.18;;;16.40;99.90;;;;;;5037278;28;20037;-58
2021/10/22 02:16:46;;;;;;;14.75;9.80;;;16.40;99.90;;;;;;5037495;28;20068;-58
2021/10/22 02:19:13;;;;;;;14.18;8.75;;;16.40;99.90;;;;;;5037190;28;20044;-59
2021/10/22 02:21:41;;;;;;;17.10;10.38;;;16.40;99.90;;;;;;5054495;28;20049;-58
2021/10/22 02:24:09;;;;;;;12.85;8.93;;;16.40;99.90;;;;;;5037162;28;20036;-60
2021/10/22 02:26:37;;;;;;;14.80;9.32;;;16.40;99.90;;;;;;5020654;28;20403;-58
2021/10/22 02:29:04;;;;;;;19.38;10.95;;;16.30;99.90;;;;;;5054763;28;20135;-58
2021/10/22 02:31:32;;;;;;;17.65;9.60;;;16.30;99.90;;;;;;5037028;28;20048;-58
2021/10/22 02:33:59;;;;;;;14.18;9.63;;;16.30;99.90;;;;;;5036855;28;20044;-58
2021/10/22 02:36:27;;;;;;;16.50;11.40;;;16.30;99.90;;;;;;5036847;28;20041;-58
2021/10/22 02:38:55;;;;;;;14.95;9.68;;;16.30;99.90;;;;;;5036677;28;20076;-58
2021/10/22 02:41:22;;;;;;;15.93;10.60;;;16.30;99.90;;;;;;5036875;28;20056;-58
2021/10/22 02:43:50;;;;;;;16.13;10.43;;;16.40;99.90;;;;;;5036700;28;20148;-58
2021/10/22 02:46:18;;;;;;;18.73;12.07;;;16.40;99.90;;;;;;5054152;28;20506;-59
2021/10/22 02:48:45;;;;;;;17.05;11.48;;;16.40;99.90;;;;;;5053958;28;20041;-58
2021/10/22 02:51:13;;;;;;;17.30;10.25;;;16.40;99.90;;;;;;5035547;28;20052;-58
2021/10/22 02:53:40;;;;;;;16.90;11.55;;;16.50;99.90;;;;;;5035612;28;20053;-58
2021/10/22 02:56:08;;;;;;;16.08;10.35;;;16.50;99.90;;;;;;5053276;28;20137;-59
2021/10/22 02:58:35;;;;;;;18.80;13.00;;;16.50;99.90;;;;;;5019613;28;20043;-58
2021/10/22 03:01:05;;;;;;;15.63;10.50;;;16.50;99.90;;;;;;5036008;28;20545;-59
2021/10/22 03:03:33;;;;;;;19.95;12.73;;;16.50;99.90;;;;;;5019512;28;20049;-58
2021/10/22 03:06:01;;;;;;;24.55;13.07;;;16.40;99.90;;;;;;5019141;28;20037;-59
2021/10/22 03:08:29;;;;;;;17.77;12.15;;;16.40;99.90;;;;;;5053187;28;20045;-58
2021/10/22 03:10:57;;;;;;;18.67;13.13;;;16.40;99.90;;;;;;5035931;28;20041;-58
2021/10/22 03:13:25;;;;;;;18.42;12.60;;;16.40;99.90;;;;;;5027358;28;20071;-59
2021/10/22 03:15:53;;;;;;;21.92;14.57;;;16.30;99.90;;;;;;5035888;28;20039;-59
2021/10/22 03:18:20;;;;;;;22.83;15.57;;;16.30;99.90;;;;;;5018880;28;20447;-58
2021/10/22 03:20:48;;;;;;;20.98;14.10;;;16.30;99.90;;;;;;5052927;28;20052;-58
2021/10/22 03:23:15;;;;;;;21.02;14.60;;;16.30;99.90;;;;;;5035242;28;20045;-59
2021/10/22 03:25:43;;;;;;;24.10;13.90;;;16.30;99.90;;;;;;5035453;28;20487;-58
2021/10/22 03:28:11;;;;;;;27.85;15.52;;;16.30;99.90;;;;;;5053201;28;20056;-59
2021/10/22 03:30:38;;;;;;;28.35;15.10;;;16.30;99.90;;;;;;5053384;28;20043;-59
2021/10/22 03:33:06;;;;;;;24.23;15.57;;;16.20;99.90;;;;;;5036044;28;20429;-58
2021/10/22 03:35:34;;;;;;;23.02;16.10;;;16.20;99.90;;;;;;5035419;28;20049;-58
2021/10/22 03:38:02;;;;;;;31.23;16.88;;;16.30;99.90;;;;;;5034679;28;20089;-58
2021/10/22 03:40:30;;;;;;;22.83;14.57;;;16.30;99.90;;;;;;5035261;28;20056;-58
2021/10/22 03:42:58;;;;;;;20.63;14.77;;;16.30;99.90;;;;;;5035415;28;20037;-59
2021/10/22 03:45:26;;;;;;;20.35;13.60;;;16.20;99.90;;;;;;5019072;28;20052;-59
2021/10/22 03:47:55;;;;;;;22.17;13.60;;;16.20;99.90;;;;;;5053148;28;20073;-59
2021/10/22 03:50:25;;;;;;;21.35;12.93;;;16.20;99.90;;;;;;5053102;28;20386;-58
2021/10/22 03:52:53;;;;;;;24.08;13.98;;;16.20;99.90;;;;;;5018659;28;20144;-58
2021/10/22 03:55:21;;;;;;;20.50;12.32;;;16.20;99.90;;;;;;5035036;28;20514;-59
2021/10/22 03:57:49;;;;;;;21.08;11.20;;;16.20;99.90;;;;;;5018775;28;20400;-58
2021/10/22 04:00:17;;;;;;;21.98;11.45;;;16.20;99.90;;;;;;5053003;28;20033;-59
2021/10/22 04:02:45;;;;;;;22.17;11.43;;;16.20;99.90;;;;;;5018910;28;20045;-59
2021/10/22 04:05:13;;;;;;;18.92;11.70;;;16.10;99.90;;;;;;5035515;28;20447;-59
2021/10/22 04:07:41;;;;;;;19.60;12.25;;;16.10;99.90;;;;;;5019071;28;20183;-58
2021/10/22 04:10:11;;;;;;;19.30;11.40;;;16.10;99.90;;;;;;5018573;28;20048;-59
2021/10/22 04:12:39;;;;;;;19.27;10.93;;;16.10;99.90;;;;;;5052589;28;20514;-58
2021/10/22 04:15:08;;;;;;;18.50;10.73;;;16.10;99.90;;;;;;5018544;28;20045;-59
2021/10/22 04:17:38;;;;;;;24.27;11.48;;;16.10;99.90;;;;;;5019150;28;20458;-58
2021/10/22 04:20:07;;;;;;;19.02;12.43;;;16.00;99.90;;;;;;5035320;28;20052;-58
2021/10/22 04:22:36;;;;;;;17.40;10.82;;;15.90;99.90;;;;;;5034964;28;20056;-58
2021/10/22 04:25:04;;;;;;;19.05;11.02;;;16.00;99.90;;;;;;5034396;28;20059;-59
2021/10/22 04:27:49;;;;;;;21.07;11.50;;;16.00;99.90;;;;;;5052454;28;20060;-59
2021/10/22 04:30:17;;;;;;;16.70;10.77;;;16.00;99.90;;;;;;5018433;28;20283;-59
2021/10/22 04:32:45;;;;;;;14.40;10.15;;;16.00;99.90;;;;;;5055825;28;20048;-59
2021/10/22 04:35:12;;;;;;;22.42;11.95;;;16.00;99.90;;;;;;5038704;28;20061;-59
2021/10/22 04:37:48;;;;;;;19.88;10.88;;;16.00;99.90;;;;;;5022565;28;20439;-58
2021/10/22 04:40:31;;;;;;;;;;;16.00;99.90;;;;;;5038351;28;20123;-59
2021/10/22 04:43:28;;;;;;;17.60;11.00;;;16.00;99.90;;;;;;5038293;28;19927;-58
2021/10/22 04:45:56;;;;;;;15.50;10.68;;;16.10;99.90;;;;;;5035604;28;20132;-58
2021/10/22 04:48:24;;;;;;;18.02;12.13;;;16.00;99.90;;;;;;5021550;28;20041;-58
2021/10/22 04:50:51;;;;;;;18.83;12.15;;;16.10;99.90;;;;;;5038646;28;20435;-58
2021/10/22 04:53:27;;;;;;;18.88;11.93;;;16.10;99.90;;;;;;5038630;28;20435;-58
2021/10/22 04:55:55;;;;;;;16.42;11.63;;;16.10;99.90;;;;;;5038133;28;20068;-58
2021/10/22 04:58:22;;;;;;;19.45;13.13;;;16.10;99.90;;;;;;5055672;28;20129;-58
2021/10/22 05:00:58;;;;;;;17.42;12.75;;;16.10;99.90;;;;;;5055753;28;20033;-59
2021/10/22 05:03:26;;;;;;;16.90;11.52;;;16.10;99.90;;;;;;5038262;28;20037;-59
2021/10/22 05:05:53;;;;;;;21.48;13.32;;;16.00;99.90;;;;;;5038130;28;20049;-59
2021/10/22 05:08:21;;;;;;;19.20;12.98;;;16.10;99.90;;;;;;5055705;28;20111;-59
2021/10/22 05:10:49;;;;;;;20.73;12.60;;;16.10;99.90;;;;;;5038099;28;20049;-58
2021/10/22 05:13:17;;;;;;;19.98;13.23;;;16.10;99.90;;;;;;5037463;28;20080;-58
2021/10/22 05:15:44;;;;;;;22.05;13.35;;;16.10;99.90;;;;;;5037904;28;20033;-59
2021/10/22 05:18:12;;;;;;;20.35;13.13;;;16.10;99.90;;;;;;5055241;28;20068;-59
2021/10/22 05:20:40;;;;;;;22.45;13.68;;;16.10;99.90;;;;;;5021566;28;20049;-58
2021/10/22 05:23:09;;;;;;;22.40;15.32;;;16.20;99.90;;;;;;5055561;28;20041;-58
2021/10/22 05:25:37;;;;;;;24.52;14.57;;;16.20;99.90;;;;;;5038127;28;20040;-58
2021/10/22 05:28:05;;;;;;;21.38;13.73;;;16.30;99.90;;;;;;5036920;28;20044;-58
2021/10/22 05:30:33;;;;;;;25.40;16.45;;;16.30;99.90;;;;;;5004492;28;20076;-59
2021/10/22 05:33:01;;;;;;;25.33;15.05;;;16.40;99.90;;;;;;5021215;28;20160;-58
2021/10/22 05:35:29;;;;;;;25.75;16.77;;;16.50;99.90;;;;;;5037665;28;20637;-59
2021/10/22 05:37:56;;;;;;;23.63;14.65;;;16.50;99.90;;;;;;5055282;28;20045;-58
2021/10/22 05:40:24;;;;;;;27.13;13.98;;;16.60;99.90;;;;;;5037789;28;20045;-58
2021/10/22 05:42:52;;;;;;;24.10;14.02;;;16.70;99.90;;;;;;5020618;28;20044;-59
2021/10/22 05:45:19;;;;;;;20.92;14.07;;;16.70;99.90;;;;;;5037048;28;20053;-58
2021/10/22 05:47:47;;;;;;;22.70;11.63;;;16.70;99.90;;;;;;5055073;28;20045;-58
2021/10/22 05:50:15;;;;;;;21.05;13.95;;;16.60;99.90;;;;;;5021148;28;20075;-58
2021/10/22 05:52:43;;;;;;;23.23;13.70;;;16.70;99.90;;;;;;5004550;28;20140;-58
2021/10/22 05:55:11;;;;;;;19.52;13.27;;;16.70;99.90;;;;;;5037503;28;20045;-59
2021/10/22 05:57:38;;;;;;;17.92;11.95;;;16.70;99.90;;;;;;5020520;28;20171;-59
2021/10/22 06:00:06;;;;;;;21.70;13.73;;;16.90;99.90;;;;;;5036446;28;20041;-59
2021/10/22 06:02:41;;;;;;;20.75;12.35;;;17.00;99.90;;;;;;5021521;28;20147;-58
2021/10/22 06:05:10;;;;;;;22.17;14.35;;;17.20;99.90;;;;;;5004317;28;20063;-58
2021/10/22 06:07:38;;;;;;;19.73;11.38;;;17.40;99.90;;;;;;5020704;28;20495;-58
2021/10/22 06:10:06;;;;;;;22.23;11.82;;;17.70;99.90;;;;;;5054799;28;20048;-58
2021/10/22 06:12:34;;;;;;;21.83;11.30;;;17.90;99.90;;;;;;5010513;28;20051;-60
2021/10/22 06:15:03;;;;;;;20.45;11.43;;;18.30;99.90;;;;;;5030663;28;20049;-59
2021/10/22 06:17:33;;;;;;;17.85;11.85;;;18.70;99.90;;;;;;5018256;28;20135;-60
2021/10/22 06:20:10;;;;;;;15.30;10.18;;;19.00;99.90;;;;;;5030315;28;20052;-59
2021/10/22 06:23:53;;;;;;;15.65;10.10;;;19.60;99.90;;;;;;5055568;28;20431;-60
2021/10/22 06:25:40;;;;;;;15.20;10.00;;;20.00;99.90;;;;;;5038969;28;20049;-59
2021/10/22 06:28:08;;;;;;;10.88;8.45;;;20.40;99.90;;;;;;5054891;28;20048;-59
2021/10/22 06:30:37;;;;;;;14.48;8.75;;;20.90;99.90;;;;;;5050679;28;20039;-60
2021/10/22 06:33:05;;;;;;;19.25;9.82;;;21.30;99.90;;;;;;5006983;28;20029;-59
2021/10/22 06:35:33;;;;;;;16.73;9.77;;;21.70;99.90;;;;;;5031151;28;20045;-60
2021/10/22 06:38:01;;;;;;;12.93;8.57;;;21.90;99.90;;;;;;5065624;28;20142;-59
2021/10/22 06:40:29;;;;;;;14.88;9.40;;;21.90;99.90;;;;;;5054366;28;20079;-59
2021/10/22 06:42:57;;;;;;;16.83;9.07;;;21.70;99.90;;;;;;5053590;28;20499;-59
2021/10/22 06:45:25;;;;;;;15.25;8.18;;;21.40;99.90;;;;;;5034059;28;20502;-59
2021/10/22 06:47:53;;;;;;;13.45;7.13;;;21.30;99.90;;;;;;5048912;28;20051;-59
2021/10/22 06:50:21;;;;;;;15.15;8.15;;;21.20;99.90;;;;;;5047380;28;20056;-60
2021/10/22 06:52:49;;;;;;;13.43;6.75;;;21.30;99.90;;;;;;5035094;28;20099;-59
2021/10/22 06:55:17;;;;;;;10.98;6.13;;;21.20;99.90;;;;;;5031970;28;20053;-59
2021/10/22 06:57:46;;;;;;;12.65;6.95;;;21.30;99.90;;;;;;5047666;28;20143;-59
2021/10/22 07:00:13;;;;;;;9.38;6.10;;;21.30;99.90;;;;;;5047528;28;20067;-60
2021/10/22 07:02:52;;;;;;;11.02;6.88;;;21.40;99.90;;;;;;5035178;28;20032;-59
2021/10/22 07:08:08;;;;;;;8.57;5.80;;;21.20;99.90;;;;;;5035806;28;20135;-58
2021/10/22 07:10:37;;;;;;;8.82;6.13;;;21.20;99.90;;;;;;5051085;28;20426;-59
2021/10/22 07:13:05;;;;;;;12.25;7.15;;;21.10;99.90;;;;;;5051848;28;20052;-59
2021/10/22 07:15:33;;;;;;;12.70;6.97;;;21.10;99.90;;;;;;5035815;28;20128;-59
2021/10/22 07:18:01;;;;;;;9.88;5.72;;;21.00;99.90;;;;;;5034492;28;20056;-59
2021/10/22 07:20:31;;;;;;;11.48;6.90;;;20.90;99.90;;;;;;5036206;28;20044;-58
2021/10/22 07:23:07;;;;;;;14.88;6.45;;;20.80;99.90;;;;;;5038649;28;20505;-59
2021/10/22 07:25:38;;;;;;;9.23;5.55;;;20.80;99.90;;;;;;5050843;28;20129;-59
2021/10/22 07:28:15;;;;;;;9.38;6.38;;;20.80;99.90;;;;;;5003099;28;20091;-59
2021/10/22 07:30:45;;;;;;;8.52;6.53;;;20.90;99.90;;;;;;5024306;28;20052;-59
2021/10/22 07:33:15;;;;;;;9.80;5.75;;;20.90;99.90;;;;;;5034470;28;20144;-58
2021/10/22 07:35:42;;;;;;;9.73;5.72;;;21.10;99.90;;;;;;5035202;28;20438;-58
2021/10/22 07:38:11;;;;;;;7.45;5.35;;;21.10;99.90;;;;;;5035290;28;20407;-59
2021/10/22 07:40:44;;;;;;;11.65;6.63;;;21.10;99.90;;;;;;5019425;28;20406;-58
2021/10/22 07:43:14;;;;;;;9.70;5.93;;;21.30;99.90;;;;;;5035609;28;20049;-58
2021/10/22 07:45:41;;;;;;;7.70;5.05;;;21.30;99.90;;;;;;5035484;28;20407;-58
2021/10/22 07:48:10;;;;;;;8.55;5.60;;;21.30;99.90;;;;;;5034634;28;20136;-58
2021/10/22 07:50:38;;;;;;;11.10;5.60;;;21.30;99.90;;;;;;5035119;28;20048;-58
2021/10/22 07:53:06;;;;;;;8.35;5.43;;;21.50;99.90;;;;;;5019037;28;20055;-58
2021/10/22 07:55:36;;;;;;;8.50;5.70;;;21.50;99.90;;;;;;5035724;28;20052;-58
2021/10/22 07:58:04;;;;;;;13.13;5.70;;;21.60;99.90;;;;;;5019082;28;20091;-58
2021/10/22 08:00:31;;;;;;;8.57;5.65;;;21.60;99.90;;;;;;5035815;28;20059;-58
2021/10/22 08:02:59;;;;;;;8.43;4.97;;;21.70;99.90;;;;;;5052565;28;20049;-58
2021/10/22 08:05:27;;;;;;;9.15;5.22;;;21.80;99.90;;;;;;5034842;28;20045;-58
2021/10/22 08:07:55;;;;;;;8.45;4.20;;;21.90;99.90;;;;;;5022145;28;20414;-58
2021/10/22 08:10:23;;;;;;;7.28;4.97;;;22.00;99.90;;;;;;5038969;28;20079;-58
2021/10/22 08:12:51;;;;;;;10.48;5.18;;;22.10;99.90;;;;;;5039343;28;20056;-58
2021/10/22 08:15:21;;;;;;;6.70;4.30;;;22.10;99.90;;;;;;5023208;28;20388;-58
2021/10/22 08:17:49;;;;;;;7.47;4.53;;;22.10;99.90;;;;;;5050243;28;20054;-58
2021/10/22 08:20:22;;;;;;;10.18;6.38;;;22.10;99.90;;;;;;5034845;28;20038;-58
2021/10/22 08:22:51;;;;;;;8.18;5.18;;;22.20;99.90;;;;;;5036553;28;20532;-58
2021/10/22 08:25:21;;;;;;;5.95;4.35;;;22.30;99.90;;;;;;5019208;28;20040;-58
2021/10/22 08:27:50;;;;;;;6.75;4.78;;;22.20;99.90;;;;;;5003054;28;20045;-58
2021/10/22 08:30:26;;;;;;;8.15;4.25;;;22.20;99.90;;;;;;5002090;28;20103;-58
2021/10/22 08:32:56;;;;;;;8.50;5.00;;;22.40;99.90;;;;;;5036620;28;20045;-58
2021/10/22 08:35:28;;;;;;;11.07;5.20;;;22.40;99.90;;;;;;5035989;28;20041;-58
2021/10/22 08:37:56;;;;;;;12.27;7.20;;;22.50;99.90;;;;;;5018489;28;20113;-58
2021/10/22 08:40:24;;;;;;;7.40;4.53;;;22.70;99.90;;;;;;5002996;28;20405;-58
2021/10/22 08:42:52;;;;;;;8.15;5.30;;;22.60;99.90;;;;;;5002380;28;20120;-58
2021/10/22 08:45:21;;;;;;;6.28;4.30;;;22.50;99.90;;;;;;5001232;28;20056;-59
2021/10/22 08:47:49;;;;;;;9.63;4.40;;;22.60;99.90;;;;;;5001101;28;20053;-58
2021/10/22 08:50:20;;;;;;;9.50;5.18;;;22.60;99.90;;;;;;5016964;28;20066;-58
2021/10/22 08:52:49;;;;;;;9.38;4.80;;;22.60;99.90;;;;;;5016833;28;20054;-57
2021/10/22 08:55:18;;;;;;;10.27;5.25;;;22.50;99.90;;;;;;5000853;28;20148;-58
2021/10/22 08:57:47;;;;;;;5.75;4.30;;;22.50;99.90;;;;;;5034705;28;20033;-58
2021/10/22 09:00:18;;;;;;;6.13;4.60;;;22.70;99.90;;;;;;5016902;28;20077;-59
2021/10/22 09:02:49;;;;;;;8.93;4.20;;;23.00;99.90;;;;;;5000741;28;20049;-59
2021/10/22 09:05:18;;;;;;;7.35;4.30;;;23.10;99.90;;;;;;5001091;28;20343;-58
2021/10/22 09:07:49;;;;;;;8.48;4.80;;;23.10;99.60;;;;;;4999899;28;20104;-58
2021/10/22 09:10:19;;;;;;;8.02;5.38;;;22.90;99.60;;;;;;5000584;28;20492;-59
2021/10/22 09:12:57;;;;;;;8.75;4.50;;;23.00;99.90;;;;;;5016837;28;20045;-58
2021/10/22 09:15:42;;;;;;;6.93;4.13;;;23.10;99.00;;;;;;5034680;28;20049;-58
2021/10/22 09:18:18;;;;;;;6.00;4.28;;;23.10;98.20;;;;;;5009223;28;20056;-59
2021/10/22 09:20:57;;;;;;;6.07;4.03;;;23.20;97.80;;;;;;5054007;28;20048;-59
2021/10/22 09:23:38;;;;;;;6.97;4.47;;;23.20;97.70;;;;;;5035867;28;20088;-59
2021/10/22 09:26:19;;;;;;;6.15;3.85;;;23.20;97.80;;;;;;5054136;28;20363;-59
2021/10/22 09:28:48;;;;;;;6.00;4.47;;;23.00;97.20;;;;;;5020203;28;20041;-59
2021/10/22 09:31:20;;;;;;;8.93;4.10;;;22.90;96.90;;;;;;5019721;28;20087;-59
2021/10/22 09:34:02;;;;;;;7.00;4.63;;;22.80;97.10;;;;;;5054250;28;20053;-59
2021/10/22 09:36:41;;;;;;;6.55;4.40;;;22.60;97.30;;;;;;5036024;28;20091;-59
2021/10/22 09:39:13;;;;;;;6.85;4.82;;;22.50;98.10;;;;;;5035632;28;20122;-60
2021/10/22 09:41:58;;;;;;;6.10;4.10;;;22.50;98.50;;;;;;5035831;28;20099;-59
2021/10/22 09:44:29;;;;;;;5.70;4.25;;;22.50;97.30;;;;;;5054126;28;20080;-59
2021/10/22 09:47:07;;;;;;;6.03;3.75;;;22.70;97.70;;;;;;5036331;28;20048;-59
2021/10/22 09:49:42;;;;;;;6.03;3.60;;;22.80;97.80;;;;;;5019779;28;20487;-59
2021/10/22 09:52:27;;;;;;;11.90;4.68;;;22.80;97.30;;;;;;5019387;28;20068;-59
2021/10/22 09:55:15;;;;;;;6.07;3.47;;;22.60;97.60;;;;;;5053390;28;20175;-59
2021/10/22 09:57:45;;;;;;;6.80;4.22;;;22.60;98.30;;;;;;5035893;28;20045;-59
2021/10/22 10:00:22;;;;;;;5.28;4.03;;;22.60;98.30;;;;;;5019491;28;20057;-59
2021/10/22 10:02:49;;;;;;;6.82;4.10;;;22.60;98.50;;;;;;5019556;28;20069;-59
2021/10/22 10:05:18;;;;;;;7.38;3.97;;;22.70;98.00;;;;;;5035677;28;20053;-59
2021/10/22 10:07:47;;;;;;;6.22;4.18;;;22.70;98.20;;;;;;5035861;28;20135;-59
2021/10/22 10:10:14;;;;;;;5.05;4.25;;;22.60;96.80;;;;;;5035214;28;20055;-59
2021/10/22 10:12:42;;;;;;;7.55;4.03;;;22.70;97.40;;;;;;5035443;28;20443;-59
2021/10/22 10:15:11;;;;;;;5.47;3.50;;;22.80;98.20;;;;;;5035491;28;20065;-55
2021/10/22 10:17:46;;;;;;;6.13;4.07;;;23.00;98.10;;;;;;5035307;28;20126;-59
2021/10/22 10:20:20;;;;;;;7.93;4.60;;;23.10;97.60;;;;;;5035751;28;20446;-58
2021/10/22 10:22:49;;;;;;;5.65;3.88;;;23.20;97.30;;;;;;5036861;28;20041;-59
2021/10/22 10:25:19;;;;;;;5.32;4.20;;;23.40;97.80;;;;;;5035536;28;20045;-59
2021/10/22 10:27:50;;;;;;;6.15;4.18;;;23.70;97.30;;;;;;5036241;28;20503;-58
2021/10/22 10:30:34;;;;;;;6.43;3.55;;;23.50;96.70;;;;;;5035724;28;20079;-59
2021/10/22 10:33:04;;;;;;;5.50;3.88;;;23.60;96.70;;;;;;5054434;28;20511;-59
2021/10/22 10:35:34;;;;;;;5.53;3.67;;;23.60;96.60;;;;;;5020288;28;20426;-59
2021/10/22 10:38:03;;;;;;;13.02;4.18;;;23.70;95.80;;;;;;5019783;28;20041;-59
2021/10/22 10:40:31;;;;;;;6.43;3.50;;;23.60;95.00;;;;;;5019348;28;20076;-58
2021/10/22 10:43:02;;;;;;;4.50;3.28;;;23.40;95.80;;;;;;5018963;28;20080;-59
2021/10/22 10:45:30;;;;;;;4.85;3.63;;;23.40;96.10;;;;;;5053912;28;20514;-58
2021/10/22 10:48:04;;;;;;;5.10;3.50;;;23.20;97.10;;;;;;5016501;28;20041;-58
2021/10/22 10:50:42;;;;;;;5.80;3.65;;;23.20;97.10;;;;;;5013021;28;20059;-59
2021/10/22 10:53:15;;;;;;;10.93;4.78;;;23.20;97.00;;;;;;5036384;28;20041;-59
2021/10/22 10:55:54;;;;;;;5.50;3.55;;;23.20;97.00;;;;;;5053688;28;20132;-59
2021/10/22 10:58:23;;;;;;;9.57;5.03;;;23.20;96.80;;;;;;5053481;28;20103;-58
2021/10/22 11:00:57;;;;;;;7.38;3.85;;;23.20;97.00;;;;;;5036167;28;20144;-59
2021/10/22 11:03:43;;;;;;;9.02;4.65;;;23.40;96.00;;;;;;5053686;28;20045;-59
2021/10/22 11:06:59;;;;;;;12.52;6.50;;;23.40;96.10;;;;;;5036080;28;20037;-59
2021/10/22 11:09:35;;;;;;;8.35;4.78;;;23.40;96.20;;;;;;5028194;28;20049;-59
2021/10/22 11:12:04;;;;;;;7.20;4.18;;;23.30;96.90;;;;;;5035251;28;20051;-59
2021/10/22 11:14:50;;;;;;;17.63;6.22;;;23.30;97.00;;;;;;5053917;28;20044;-59
2021/10/22 11:17:28;;;;;;;13.00;6.70;;;23.40;96.90;;;;;;5035689;28;20072;-59
2021/10/22 11:19:58;;;;;;;6.45;3.65;;;23.50;96.50;;;;;;5019847;28;20049;-59
2021/10/22 11:22:28;;;;;;;8.43;5.68;;;23.40;96.00;;;;;;5019168;28;20045;-59
2021/10/22 11:24:56;;;;;;;8.65;4.75;;;23.40;96.20;;;;;;5035729;28;20059;-59
2021/10/22 11:27:25;;;;;;;6.28;3.38;;;23.60;96.40;;;;;;5034744;28;20479;-59
2021/10/22 11:29:54;;;;;;;12.50;7.40;;;23.50;95.00;;;;;;5035235;28;20492;-59
2021/10/22 11:32:24;;;;;;;7.22;5.13;;;23.50;94.30;;;;;;5019048;28;20041;-59
2021/10/22 11:34:57;;;;;;;6.40;3.20;;;23.50;94.10;;;;;;5017856;28;20047;-60
2021/10/22 11:37:35;;;;;;;8.60;5.13;;;23.50;94.40;;;;;;5017380;28;20056;-59
2021/10/22 11:40:06;;;;;;;5.68;4.00;;;23.50;93.80;;;;;;5034314;28;20480;-59
2021/10/22 11:42:35;;;;;;;5.13;3.78;;;23.40;94.60;;;;;;5033463;28;20566;-59
2021/10/22 11:45:11;;;;;;;5.18;2.80;;;23.40;94.80;;;;;;5051649;28;20052;-60
2021/10/22 11:47:44;;;;;;;7.10;4.30;;;23.40;95.20;;;;;;5034208;28;20094;-59
2021/10/22 11:50:23;;;;;;;8.80;4.13;;;23.50;94.00;;;;;;5034138;28;20037;-60
2021/10/22 11:53:14;;;;;;;7.45;3.45;;;23.50;94.20;;;;;;5051926;28;20061;-59
2021/10/22 11:55:49;;;;;;;4.53;3.00;;;23.50;93.00;;;;;;5034132;28;20400;-59
2021/10/22 11:58:21;;;;;;;9.00;4.95;;;23.50;93.40;;;;;;5033127;28;20045;-59
2021/10/22 12:00:50;;;;;;;7.13;4.60;;;23.20;93.90;;;;;;5051384;28;20427;-59
2021/10/22 12:03:45;;;;;;;8.63;4.07;;;23.20;94.70;;;;;;5051581;28;20128;-59
2021/10/22 12:06:23;;;;;;;5.85;3.70;;;23.30;94.80;;;;;;5033808;28;20037;-59
2021/10/22 12:08:54;;;;;;;6.40;3.42;;;23.20;95.70;;;;;;5051564;28;20045;-59
2021/10/22 12:11:26;;;;;;;5.57;4.20;;;23.30;95.70;;;;;;5017536;28;20041;-59
2021/10/22 12:13:53;;;;;;;6.57;3.60;;;23.30;96.00;;;;;;5050809;28;20451;-59
2021/10/22 12:16:29;;;;;;;6.10;4.13;;;23.30;95.50;;;;;;5033248;28;20053;-58
2021/10/22 12:18:59;;;;;;;5.53;3.65;;;23.40;96.00;;;;;;5016734;28;20505;-59
2021/10/22 12:21:31;;;;;;;5.30;3.40;;;23.40;96.00;;;;;;5017383;28;20174;-58
2021/10/22 12:24:02;;;;;;;4.63;3.70;;;23.30;95.90;;;;;;5033893;28;20049;-59
2021/10/22 12:26:32;;;;;;;5.45;3.40;;;23.30;96.00;;;;;;5017142;28;20052;-59
2021/10/22 12:29:08;;;;;;;6.22;3.92;;;23.30;95.10;;;;;;5017073;28;20049;-59
2021/10/22 12:31:37;;;;;;;6.45;3.83;;;23.20;96.00;;;;;;5051411;28;20496;-59
2021/10/22 12:34:26;;;;;;;4.97;3.42;;;23.10;96.20;;;;;;5033681;28;20144;-58
2021/10/22 12:37:13;;;;;;;7.65;4.38;;;23.00;96.60;;;;;;5034266;28;20047;-59
2021/10/22 12:39:46;;;;;;;6.55;3.70;;;23.10;97.10;;;;;;5001010;28;20041;-59
2021/10/22 12:42:29;;;;;;;9.48;4.43;;;23.20;95.90;;;;;;5051643;28;20439;-59
2021/10/22 12:45:15;;;;;;;6.55;3.45;;;23.20;95.30;;;;;;5017432;28;20045;-59
2021/10/22 12:47:44;;;;;;;6.10;4.13;;;23.10;95.30;;;;;;5033624;28;20405;-58
2021/10/22 12:50:17;;;;;;;8.88;4.07;;;23.10;95.70;;;;;;5011981;28;20102;-58
2021/10/22 12:53:03;;;;;;;7.40;3.90;;;23.10;96.30;;;;;;5040122;28;20180;-58
2021/10/22 12:55:32;;;;;;;6.82;3.60;;;23.10;96.40;;;;;;5035166;28;20503;-59
2021/10/22 12:58:18;;;;;;;5.38;3.55;;;23.00;96.20;;;;;;5017111;28;20041;-58